createdAt,value
2017-09-14T00:00:38.322Z,75.90
2017-09-14T00:03:12.021Z,74.90
2017-09-14T00:05:45.586Z,75.20
2017-09-14T00:08:19.626Z,75.50
2017-09-14T00:10:53.190Z,74.80
2017-09-14T00:13:26.898Z,75.10
2017-09-14T00:16:01.355Z,74.20
2017-09-14T00:18:35.678Z,74.60
2017-09-14T00:21:09.270Z,74.60
2017-09-14T00:23:42.878Z,73.90
2017-09-14T00:26:16.370Z,73.90
2017-09-14T00:28:49.805Z,74.10
2017-09-14T00:31:23.473Z,73.80
2017-09-14T00:33:57.065Z,73.60
2017-09-14T00:36:30.626Z,73.50
2017-09-14T00:39:04.226Z,73.90
2017-09-14T00:41:38.074Z,73.90
2017-09-14T00:44:11.657Z,73.40
2017-09-14T00:46:45.481Z,73.50
2017-09-14T00:49:19.086Z,73.60
2017-09-14T00:51:52.805Z,73.50
2017-09-14T00:54:26.498Z,73.00
2017-09-14T00:57:00.805Z,73.50
2017-09-14T00:59:34.613Z,73.50
2017-09-14T01:02:08.185Z,73.40
2017-09-14T01:04:41.778Z,73.00
2017-09-14T01:07:15.266Z,73.00
2017-09-14T01:09:48.913Z,73.30
2017-09-14T01:12:22.697Z,73.40
2017-09-14T01:15:14.105Z,73.10
2017-09-14T01:17:47.746Z,72.90
2017-09-14T01:20:21.345Z,73.20
2017-09-14T01:22:54.942Z,73.30
2017-09-14T01:25:28.643Z,73.20
2017-09-14T01:28:02.345Z,73.30
2017-09-14T01:30:36.016Z,73.20
2017-09-14T01:33:09.525Z,73.30
2017-09-14T01:35:43.344Z,73.20
2017-09-14T01:38:17.058Z,73.20
2017-09-14T01:40:51.457Z,73.30
2017-09-14T01:43:25.075Z,73.20
2017-09-14T01:45:58.777Z,73.00
2017-09-14T01:48:32.385Z,72.80
2017-09-14T01:51:05.869Z,73.00
2017-09-14T01:53:40.170Z,72.80
2017-09-14T01:56:13.793Z,72.70
2017-09-14T01:58:48.076Z,72.70
2017-09-14T02:01:22.403Z,72.90
2017-09-14T02:03:56.046Z,72.90
2017-09-14T02:06:29.605Z,72.80
2017-09-14T02:09:03.203Z,72.50
2017-09-14T02:11:37.740Z,72.60
2017-09-14T02:14:11.336Z,72.60
2017-09-14T02:16:44.970Z,72.70
2017-09-14T02:19:18.613Z,72.50
2017-09-14T02:21:52.366Z,72.40
2017-09-14T02:24:25.957Z,72.00
2017-09-14T02:26:59.665Z,72.00
2017-09-14T02:29:33.233Z,71.90
2017-09-14T02:32:07.365Z,71.90
2017-09-14T02:34:40.990Z,71.70
2017-09-14T02:37:14.434Z,71.80
2017-09-14T02:39:48.082Z,71.60
2017-09-14T02:42:21.638Z,71.70
2017-09-14T02:44:55.281Z,71.70
2017-09-14T02:47:28.945Z,71.40
2017-09-14T02:50:02.557Z,71.40
2017-09-14T02:52:36.186Z,70.90
2017-09-14T02:55:09.729Z,71.20
2017-09-14T02:57:43.462Z,71.10
2017-09-14T03:00:16.880Z,71.00
2017-09-14T03:02:50.437Z,71.00
2017-09-14T03:05:24.081Z,71.00
2017-09-14T03:07:57.661Z,70.90
2017-09-14T03:10:31.786Z,71.10
2017-09-14T03:13:05.308Z,71.30
2017-09-14T03:15:38.737Z,71.00
2017-09-14T03:18:12.605Z,71.20
2017-09-14T03:20:46.245Z,72.00
2017-09-14T03:23:19.914Z,71.10
2017-09-14T03:25:54.194Z,71.50
2017-09-14T03:28:27.934Z,71.40
2017-09-14T03:31:01.838Z,71.50
2017-09-14T03:33:35.642Z,71.60
2017-09-14T03:36:10.298Z,71.70
2017-09-14T03:38:43.914Z,71.70
2017-09-14T03:41:17.857Z,71.60
2017-09-14T03:43:51.574Z,71.90
2017-09-14T03:46:26.193Z,71.80
2017-09-14T03:49:00.525Z,71.50
2017-09-14T03:51:34.222Z,71.50
2017-09-14T03:54:08.249Z,71.80
2017-09-14T03:56:41.869Z,72.20
2017-09-14T03:59:15.639Z,71.60
2017-09-14T04:01:49.249Z,71.60
2017-09-14T04:04:23.761Z,71.80
2017-09-14T04:06:57.570Z,71.80
2017-09-14T04:09:31.168Z,71.70
2017-09-14T04:12:05.357Z,71.80
2017-09-14T04:14:38.991Z,71.70
2017-09-14T04:17:12.554Z,71.90
2017-09-14T04:19:46.907Z,71.70
2017-09-14T04:22:21.370Z,71.70
2017-09-14T04:24:55.858Z,71.50
2017-09-14T04:27:29.445Z,71.50
2017-09-14T04:30:03.045Z,71.60
2017-09-14T04:32:36.754Z,71.60
2017-09-14T04:35:10.453Z,71.80
2017-09-14T04:37:44.150Z,71.60
2017-09-14T04:40:17.970Z,72.00
2017-09-14T04:42:52.484Z,71.50
2017-09-14T04:45:25.985Z,71.50
2017-09-14T04:47:59.541Z,72.00
2017-09-14T04:50:33.186Z,71.50
2017-09-14T04:53:06.644Z,71.50
2017-09-14T04:55:41.105Z,71.20
2017-09-14T04:58:14.810Z,71.20
2017-09-14T05:00:48.475Z,71.30
2017-09-14T05:03:21.993Z,71.40
2017-09-14T05:05:56.313Z,71.10
2017-09-14T05:08:29.900Z,71.10
2017-09-14T05:11:03.496Z,71.20
2017-09-14T05:13:37.105Z,71.10
2017-09-14T05:16:11.055Z,71.20
2017-09-14T05:18:45.362Z,70.90
2017-09-14T05:21:18.958Z,71.30
2017-09-14T05:23:52.623Z,71.20
2017-09-14T05:26:26.276Z,71.20
2017-09-14T05:28:59.720Z,71.00
2017-09-14T05:31:34.282Z,71.50
2017-09-14T05:34:08.389Z,71.50
2017-09-14T05:36:42.102Z,71.40
2017-09-14T05:39:15.662Z,72.20
2017-09-14T05:41:49.307Z,71.90
2017-09-14T05:44:22.796Z,72.90
2017-09-14T05:46:56.517Z,74.30
2017-09-14T05:49:30.049Z,75.80
2017-09-14T05:52:03.574Z,75.60
2017-09-14T05:54:37.204Z,75.20
2017-09-14T05:57:10.801Z,74.90
2017-09-14T05:59:44.311Z,75.40
2017-09-14T06:02:18.805Z,74.70
2017-09-14T06:04:53.141Z,74.20
2017-09-14T06:07:26.837Z,74.20
2017-09-14T06:10:00.451Z,73.90
2017-09-14T06:12:33.937Z,73.40
2017-09-14T06:15:07.545Z,73.30
2017-09-14T06:17:41.246Z,73.00
2017-09-14T06:20:14.941Z,72.20
2017-09-14T06:22:48.409Z,72.00
2017-09-14T06:25:21.894Z,72.20
2017-09-14T06:27:55.753Z,71.90
2017-09-14T06:30:29.353Z,72.20
2017-09-14T06:33:02.954Z,72.50
2017-09-14T06:35:36.517Z,71.90
2017-09-14T06:38:10.024Z,71.40
2017-09-14T06:40:43.744Z,71.80
2017-09-14T06:43:17.311Z,71.70
2017-09-14T06:45:50.934Z,71.90
2017-09-14T06:48:24.514Z,72.10
2017-09-14T06:50:58.276Z,71.60
2017-09-14T06:53:32.537Z,71.20
2017-09-14T06:56:06.178Z,71.20
2017-09-14T06:58:39.635Z,71.40
2017-09-14T07:01:14.093Z,71.00
2017-09-14T07:03:47.689Z,71.20
2017-09-14T07:06:21.533Z,71.70
2017-09-14T07:08:55.049Z,71.60
2017-09-14T07:11:28.593Z,71.90
2017-09-14T07:14:02.161Z,72.10
2017-09-14T07:16:35.703Z,72.00
2017-09-14T07:19:09.198Z,71.90
2017-09-14T07:21:42.801Z,71.70
2017-09-14T07:24:16.401Z,71.40
2017-09-14T07:26:50.076Z,71.50
2017-09-14T07:29:23.684Z,71.30
2017-09-14T07:31:57.273Z,71.20
2017-09-14T07:34:31.004Z,71.40
2017-09-14T07:37:04.730Z,71.50
2017-09-14T07:39:38.417Z,71.40
2017-09-14T07:42:12.089Z,71.40
2017-09-14T07:44:45.728Z,71.40
2017-09-14T07:47:19.296Z,71.20
2017-09-14T07:49:52.818Z,71.30
2017-09-14T07:52:26.417Z,71.20
2017-09-14T07:55:00.706Z,71.40
2017-09-14T07:57:34.334Z,71.40
2017-09-14T08:00:07.890Z,71.00
2017-09-14T08:02:41.637Z,71.20
2017-09-14T08:05:15.139Z,70.90
2017-09-14T08:07:48.652Z,71.40
2017-09-14T08:10:22.177Z,71.40
2017-09-14T08:12:55.906Z,71.20
2017-09-14T08:15:29.550Z,71.30
2017-09-14T08:18:03.110Z,72.00
2017-09-14T08:20:36.754Z,71.80
2017-09-14T08:23:10.419Z,72.30
2017-09-14T08:25:43.945Z,71.90
2017-09-14T08:28:17.406Z,71.70
2017-09-14T08:30:51.917Z,71.80
2017-09-14T08:33:25.668Z,71.10
2017-09-14T08:35:59.273Z,71.20
2017-09-14T08:38:32.870Z,71.30
2017-09-14T08:41:07.087Z,70.90
2017-09-14T08:43:40.586Z,70.80
2017-09-14T08:46:14.178Z,71.00
2017-09-14T08:48:47.750Z,71.00
2017-09-14T08:51:21.914Z,71.50
2017-09-14T08:53:55.505Z,70.70
2017-09-14T08:56:29.202Z,71.10
2017-09-14T08:59:02.802Z,71.20
2017-09-14T09:01:36.377Z,71.50
2017-09-14T09:04:10.689Z,71.80
2017-09-14T09:06:44.321Z,71.80
2017-09-14T09:09:17.789Z,72.10
2017-09-14T09:11:51.285Z,72.10
2017-09-14T09:14:24.917Z,72.30
2017-09-14T09:16:58.474Z,72.00
2017-09-14T09:19:32.013Z,72.40
2017-09-14T09:22:05.577Z,72.10
2017-09-14T09:24:39.322Z,70.90
2017-09-14T09:27:12.985Z,70.90
2017-09-14T09:29:46.586Z,71.10
2017-09-14T09:32:20.207Z,70.70
2017-09-14T09:34:53.829Z,70.50
2017-09-14T09:37:27.538Z,70.60
2017-09-14T09:40:01.251Z,70.30
2017-09-14T09:42:35.649Z,70.20
2017-09-14T09:45:10.074Z,70.00
2017-09-14T09:47:43.678Z,70.00
2017-09-14T09:50:17.998Z,69.90
2017-09-14T09:52:51.601Z,69.80
2017-09-14T09:55:25.396Z,68.90
2017-09-14T09:57:58.862Z,69.10
2017-09-14T10:00:32.501Z,68.90
2017-09-14T10:03:06.792Z,69.30
2017-09-14T10:05:40.273Z,69.30
2017-09-14T10:08:13.974Z,69.20
2017-09-14T10:10:48.397Z,69.20
2017-09-14T10:13:22.038Z,69.20
2017-09-14T10:15:55.589Z,68.80
2017-09-14T10:18:29.349Z,68.60
2017-09-14T10:21:04.342Z,68.10
2017-09-14T10:23:38.150Z,68.40
2017-09-14T10:26:11.745Z,69.10
2017-09-14T10:28:45.586Z,69.20
2017-09-14T10:31:21.521Z,69.00
2017-09-14T10:33:55.087Z,69.00
2017-09-14T10:36:28.836Z,69.00
2017-09-14T10:39:02.609Z,68.20
2017-09-14T10:41:36.960Z,68.00
2017-09-14T10:44:10.473Z,68.10
2017-09-14T10:46:44.902Z,67.70
2017-09-14T10:49:18.500Z,67.00
2017-09-14T10:51:52.037Z,66.30
2017-09-14T10:54:25.777Z,66.20
2017-09-14T10:56:59.290Z,66.90
2017-09-14T10:59:32.861Z,65.80
2017-09-14T11:02:06.404Z,65.10
2017-09-14T11:04:40.695Z,64.30
2017-09-14T11:07:14.422Z,64.20
2017-09-14T11:09:48.217Z,65.50
2017-09-14T11:12:21.694Z,65.10
2017-09-14T11:14:55.318Z,64.50
2017-09-14T11:17:29.230Z,63.80
2017-09-14T11:20:02.945Z,63.50
2017-09-14T11:22:36.565Z,64.30
2017-09-14T11:25:10.321Z,64.10
2017-09-14T11:27:43.911Z,63.60
2017-09-14T11:30:17.733Z,63.90
2017-09-14T11:32:51.241Z,63.50
2017-09-14T11:35:24.694Z,63.20
2017-09-14T11:37:58.304Z,63.20
2017-09-14T11:40:31.938Z,62.20
2017-09-14T11:43:05.454Z,63.50
2017-09-14T11:45:39.345Z,63.10
2017-09-14T11:48:12.916Z,61.30
2017-09-14T11:50:46.492Z,61.50
2017-09-14T11:53:20.146Z,62.50
2017-09-14T11:55:53.754Z,62.20
2017-09-14T11:58:27.345Z,61.70
2017-09-14T12:01:01.054Z,61.00
2017-09-14T12:03:35.330Z,61.70
2017-09-14T12:06:09.590Z,61.70
2017-09-14T12:08:43.145Z,60.60
2017-09-14T12:11:16.643Z,60.20
2017-09-14T12:13:50.081Z,60.60
2017-09-14T12:16:23.778Z,59.80
2017-09-14T12:18:57.830Z,60.00
2017-09-14T12:21:32.521Z,59.20
2017-09-14T12:24:06.192Z,59.20
2017-09-14T12:26:39.821Z,59.40
2017-09-14T12:29:14.757Z,59.20
2017-09-14T12:31:49.241Z,58.60
2017-09-14T12:34:22.863Z,57.90
2017-09-14T12:36:57.071Z,58.60
2017-09-14T12:39:30.694Z,58.60
2017-09-14T12:42:04.282Z,57.50
2017-09-14T12:44:37.853Z,58.50
2017-09-14T12:47:11.482Z,58.20
2017-09-14T12:49:45.903Z,58.00
2017-09-14T12:52:19.481Z,58.00
2017-09-14T12:54:53.166Z,57.70
2017-09-14T12:57:26.726Z,57.60
2017-09-14T13:00:00.420Z,57.50
2017-09-14T13:02:34.946Z,58.00
2017-09-14T13:05:08.537Z,57.00
2017-09-14T13:07:42.952Z,56.90
2017-09-14T13:10:16.538Z,57.50
2017-09-14T13:12:50.127Z,57.70
2017-09-14T13:15:23.771Z,57.50
2017-09-14T13:17:57.969Z,57.90
2017-09-14T13:20:31.591Z,57.90
2017-09-14T13:23:05.137Z,57.20
2017-09-14T13:25:38.625Z,57.50
2017-09-14T13:28:12.071Z,57.20
2017-09-14T13:30:45.642Z,57.50
2017-09-14T13:33:19.481Z,57.60
2017-09-14T13:35:53.762Z,59.80
2017-09-14T13:38:27.397Z,59.20
2017-09-14T13:41:01.214Z,59.20
2017-09-14T13:43:34.792Z,59.70
2017-09-14T13:46:08.409Z,59.60
2017-09-14T13:48:42.117Z,60.00
2017-09-14T13:51:16.505Z,64.10
2017-09-14T13:53:50.133Z,64.10
2017-09-14T13:56:23.733Z,64.10
2017-09-14T13:58:57.286Z,63.90
2017-09-14T14:01:31.036Z,62.90
2017-09-14T14:04:05.501Z,63.00
2017-09-14T14:06:39.265Z,64.00
2017-09-14T14:09:12.846Z,62.70
2017-09-14T14:11:47.391Z,62.00
2017-09-14T14:14:20.985Z,62.00
2017-09-14T14:16:55.026Z,61.20
2017-09-14T14:19:28.562Z,61.90
2017-09-14T14:22:02.446Z,61.10
2017-09-14T14:24:35.941Z,61.30
2017-09-14T14:27:09.521Z,60.40
2017-09-14T14:29:43.301Z,60.50
2017-09-14T14:32:16.777Z,60.20
2017-09-14T14:34:50.306Z,59.80
2017-09-14T14:37:25.237Z,59.90
2017-09-14T14:39:58.881Z,60.40
2017-09-14T14:42:32.634Z,59.20
2017-09-14T14:45:06.430Z,60.00
2017-09-14T14:47:40.253Z,59.80
2017-09-14T14:50:13.800Z,59.80
2017-09-14T14:52:47.557Z,60.30
2017-09-14T14:55:21.161Z,59.40
2017-09-14T14:57:55.597Z,59.70
2017-09-14T15:00:29.301Z,59.70
2017-09-14T15:03:02.881Z,60.30
2017-09-14T15:05:36.536Z,61.90
2017-09-14T15:08:10.081Z,62.20
2017-09-14T15:10:43.734Z,62.70
2017-09-14T15:13:17.385Z,63.00
2017-09-14T15:15:51.030Z,62.70
2017-09-14T15:18:24.789Z,60.90
2017-09-14T15:20:58.497Z,60.40
2017-09-14T15:23:32.977Z,61.90
2017-09-14T15:26:06.739Z,61.20
2017-09-14T15:28:40.321Z,60.40
2017-09-14T15:31:14.039Z,59.70
2017-09-14T15:33:48.050Z,59.20
2017-09-14T15:36:22.561Z,59.10
2017-09-14T15:39:02.065Z,59.10
2017-09-14T15:41:41.393Z,59.50
2017-09-14T15:44:21.546Z,59.80
2017-09-14T15:46:55.882Z,59.50
2017-09-14T15:49:35.204Z,59.40
2017-09-14T15:52:08.688Z,59.70
2017-09-14T15:54:42.551Z,59.30
2017-09-14T15:57:16.156Z,59.60
2017-09-14T15:59:49.812Z,60.00
2017-09-14T16:02:23.458Z,59.70
2017-09-14T16:04:56.968Z,59.70
2017-09-14T16:07:30.411Z,60.00
2017-09-14T16:10:03.926Z,59.20
2017-09-14T16:12:37.549Z,58.70
2017-09-14T16:15:11.256Z,58.90
2017-09-14T16:17:44.960Z,59.30
2017-09-14T16:20:18.509Z,59.00
2017-09-14T16:22:52.257Z,59.00
2017-09-14T16:25:25.857Z,59.20
2017-09-14T16:27:59.461Z,58.50
2017-09-14T16:30:33.377Z,58.70
2017-09-14T16:33:06.916Z,58.80
2017-09-14T16:35:40.530Z,59.20
2017-09-14T16:38:14.265Z,59.00
2017-09-14T16:40:47.822Z,59.20
2017-09-14T16:43:21.474Z,58.80
2017-09-14T16:45:55.173Z,59.20
2017-09-14T16:48:28.778Z,59.40
2017-09-14T16:51:02.682Z,59.70
2017-09-14T16:53:36.594Z,59.70
2017-09-14T16:56:10.167Z,59.30
2017-09-14T16:58:43.759Z,59.60
2017-09-14T17:01:17.401Z,58.80
2017-09-14T17:03:51.198Z,59.00
2017-09-14T17:06:24.797Z,59.70
2017-09-14T17:08:58.398Z,58.70
2017-09-14T17:11:32.104Z,59.10
2017-09-14T17:14:06.497Z,59.00
2017-09-14T17:16:40.094Z,59.00
2017-09-14T17:19:13.718Z,58.90
2017-09-14T17:21:47.326Z,59.80
2017-09-14T17:24:20.769Z,59.00
2017-09-14T17:26:54.313Z,58.80
2017-09-14T17:29:28.026Z,59.20
2017-09-14T17:32:01.646Z,59.40
2017-09-14T17:34:35.333Z,58.90
2017-09-14T17:37:09.701Z,59.00
2017-09-14T17:39:43.344Z,59.40
2017-09-14T17:42:16.910Z,59.30
2017-09-14T17:44:51.994Z,59.10
2017-09-14T17:47:25.686Z,59.00
2017-09-14T17:49:59.290Z,59.70
2017-09-14T17:52:32.793Z,60.10
2017-09-14T17:55:06.357Z,59.70
2017-09-14T17:57:40.094Z,59.80
2017-09-14T18:00:13.910Z,60.50
2017-09-14T18:02:47.605Z,60.40
2017-09-14T18:05:21.165Z,60.20
2017-09-14T18:07:54.814Z,60.70
2017-09-14T18:10:28.297Z,61.10
2017-09-14T18:13:02.694Z,61.40
2017-09-14T18:15:36.438Z,61.30
2017-09-14T18:18:10.559Z,61.50
2017-09-14T18:20:44.095Z,61.50
2017-09-14T18:23:18.537Z,62.30
2017-09-14T18:25:52.226Z,62.30
2017-09-14T18:28:25.858Z,62.70
2017-09-14T18:30:59.462Z,62.60
2017-09-14T18:33:33.076Z,62.40
2017-09-14T18:36:06.782Z,63.10
2017-09-14T18:38:40.465Z,63.20
2017-09-14T18:41:14.782Z,63.00
2017-09-14T18:43:48.233Z,63.00
2017-09-14T18:46:22.052Z,63.20
2017-09-14T18:48:55.797Z,63.00
2017-09-14T18:51:29.330Z,63.40
2017-09-14T18:54:03.038Z,63.00
2017-09-14T18:56:36.542Z,63.50
2017-09-14T18:59:10.214Z,63.20
2017-09-14T19:01:43.813Z,63.40
2017-09-14T19:04:17.246Z,63.00
2017-09-14T19:06:50.997Z,63.20
2017-09-14T19:09:24.593Z,63.00
2017-09-14T19:11:58.097Z,63.50
2017-09-14T19:14:31.701Z,63.10
2017-09-14T19:17:05.293Z,63.60
2017-09-14T19:19:38.738Z,63.50
2017-09-14T19:22:12.406Z,63.70
2017-09-14T19:24:46.825Z,63.80
2017-09-14T19:27:20.517Z,63.60
2017-09-14T19:29:54.101Z,63.60
2017-09-14T19:32:27.722Z,63.60
2017-09-14T19:35:01.375Z,64.20
2017-09-14T19:37:35.714Z,63.90
2017-09-14T19:40:09.342Z,63.90
2017-09-14T19:42:43.354Z,64.30
2017-09-14T19:45:17.097Z,64.10
2017-09-14T19:47:50.761Z,64.00
2017-09-14T19:50:24.471Z,64.20
2017-09-14T19:52:58.166Z,64.80
2017-09-14T19:55:31.740Z,64.50
2017-09-14T19:58:05.245Z,64.60
2017-09-14T20:00:39.074Z,65.00
2017-09-14T20:03:13.713Z,66.20
2017-09-14T20:05:47.305Z,65.40
2017-09-14T20:08:21.679Z,64.80
2017-09-14T20:10:55.318Z,64.70
2017-09-14T20:13:29.725Z,65.40
2017-09-14T20:16:03.418Z,65.80
2017-09-14T20:18:37.005Z,65.40
2017-09-14T20:21:10.642Z,65.60
2017-09-14T20:23:44.238Z,66.10
2017-09-14T20:26:17.945Z,65.60
2017-09-14T20:28:51.649Z,65.10
2017-09-14T20:31:25.865Z,65.10
2017-09-14T20:33:59.472Z,64.50
2017-09-14T20:36:33.229Z,64.90
2017-09-14T20:39:06.969Z,65.20
2017-09-14T20:41:40.781Z,65.40
2017-09-14T20:44:14.309Z,64.90
2017-09-14T20:46:47.878Z,65.10
2017-09-14T20:49:21.581Z,65.10
2017-09-14T20:51:55.165Z,65.40
2017-09-14T20:54:28.730Z,64.80
2017-09-14T20:57:02.491Z,64.40
2017-09-14T20:59:36.085Z,65.00
2017-09-14T21:02:09.909Z,64.70
2017-09-14T21:04:44.193Z,64.60
2017-09-14T21:07:17.895Z,64.60
2017-09-14T21:09:51.482Z,64.70
2017-09-14T21:12:25.073Z,65.30
2017-09-14T21:14:58.717Z,65.10
2017-09-14T21:17:33.113Z,64.70
2017-09-14T21:20:07.445Z,64.40
2017-09-14T21:22:41.777Z,64.40
2017-09-14T21:25:15.477Z,64.20
2017-09-14T21:27:48.969Z,64.40
2017-09-14T21:30:22.465Z,64.30
2017-09-14T21:32:56.047Z,64.30
2017-09-14T21:35:29.873Z,64.40
2017-09-14T21:38:03.321Z,64.30
2017-09-14T21:40:36.873Z,64.40
2017-09-14T21:43:11.241Z,64.60
2017-09-14T21:45:45.722Z,64.50
2017-09-14T21:48:19.309Z,64.50
2017-09-14T21:50:53.117Z,65.00
2017-09-14T21:53:26.677Z,64.10
2017-09-14T21:56:00.195Z,64.10
2017-09-14T21:58:33.731Z,64.10
2017-09-14T22:01:07.313Z,64.10
2017-09-14T22:03:41.647Z,64.50
2017-09-14T22:06:15.652Z,64.50
2017-09-14T22:08:49.233Z,64.20
2017-09-14T22:11:23.018Z,64.30
2017-09-14T22:13:56.549Z,64.50
2017-09-14T22:16:30.841Z,64.50
2017-09-14T22:19:04.574Z,64.50
2017-09-14T22:21:38.278Z,64.30
2017-09-14T22:24:11.835Z,64.50
2017-09-14T22:26:45.478Z,64.30
2017-09-14T22:29:19.074Z,64.00
2017-09-14T22:31:52.676Z,64.20
2017-09-14T22:34:26.278Z,64.00
2017-09-14T22:36:59.882Z,64.30
2017-09-14T22:39:34.311Z,63.90
2017-09-14T22:42:07.918Z,63.50
2017-09-14T22:44:41.466Z,64.30
2017-09-14T22:47:15.102Z,64.00
2017-09-14T22:49:48.709Z,64.40
2017-09-14T22:52:22.293Z,64.20
2017-09-14T22:54:57.318Z,64.40
2017-09-14T22:57:30.937Z,64.40
2017-09-14T23:00:04.537Z,64.40
2017-09-14T23:02:38.241Z,64.30
2017-09-14T23:05:11.845Z,64.00
2017-09-14T23:07:45.550Z,64.20
2017-09-14T23:10:19.154Z,64.40
2017-09-14T23:12:52.856Z,64.60
2017-09-14T23:15:26.401Z,64.80
2017-09-14T23:18:00.133Z,65.00
2017-09-14T23:20:33.754Z,65.10
2017-09-14T23:23:07.456Z,65.20
2017-09-14T23:25:41.121Z,65.00
2017-09-14T23:28:15.689Z,65.30
2017-09-14T23:30:49.492Z,65.30
2017-09-14T23:33:23.911Z,65.30
2017-09-14T23:35:57.521Z,65.30
2017-09-14T23:38:30.953Z,65.20
2017-09-14T23:41:04.610Z,65.30
2017-09-14T23:43:38.305Z,65.50
2017-09-14T23:46:12.310Z,65.50
2017-09-14T23:48:45.894Z,65.10
2017-09-14T23:51:19.510Z,65.50
2017-09-14T23:53:53.338Z,65.00
2017-09-14T23:56:27.801Z,65.60
2017-09-14T23:59:01.405Z,64.90
